Terminal Aerodrome Forecast
Issued by NWS

Home | Current Version | Previous Version | Text Only | Print | Product List | Glossary On
Versions: 1 2 3 4 5 6 7 8 9 10 11 12 13 14 15 16 17 18 19 20 21 22 23 24 25 26 27 28 29 30
948
FTUS43 KGRR 250038 AAA
TAFMKG
TAF AMD
KMKG 250038Z 2501/2524 04003KT 3SM BR OVC003
     FM250300 27009KT 5SM -DZ OVC004
     FM250900 29009KT 4SM -SN BR OVC003
     FM251000 30011G18KT 2SM -SN BR OVC003
     FM251200 30013G21KT 1 1/2SM -SN BR OVC003
     FM252000 29016G26KT 4SM -SN OVC025
     FM252100 29016G26KT P6SM OVC050=

USA.gov is the U.S. government's official web portal to all federal, state and local government web resources and services.